createdAt,value
2019-05-19T00:01:45.420Z,30.20
2019-05-19T00:04:17.357Z,32.67
2019-05-19T00:06:48.998Z,40.63
2019-05-19T00:09:20.725Z,38.93
2019-05-19T00:11:52.478Z,39.87
2019-05-19T00:14:24.022Z,34.00
2019-05-19T00:16:55.654Z,34.70
2019-05-19T00:19:27.331Z,38.13
2019-05-19T00:22:00.392Z,31.57
2019-05-19T00:24:31.938Z,37.03
2019-05-19T00:27:03.552Z,36.93
2019-05-19T00:29:35.395Z,33.47
2019-05-19T00:32:07.042Z,33.53
2019-05-19T00:34:38.582Z,34.17
2019-05-19T00:37:10.327Z,34.20
2019-05-19T00:39:42.070Z,32.77
2019-05-19T00:42:13.828Z,43.00
2019-05-19T00:44:45.569Z,36.23
2019-05-19T00:47:17.113Z,32.20
2019-05-19T00:49:48.667Z,34.97
2019-05-19T00:52:20.324Z,37.90
2019-05-19T00:54:52.072Z,40.27
2019-05-19T00:57:25.924Z,36.43
2019-05-19T00:59:58.774Z,35.73
2019-05-19T01:02:31.284Z,39.07
2019-05-19T01:05:03.300Z,35.70
2019-05-19T01:07:35.277Z,37.50
2019-05-19T01:10:10.588Z,35.97
2019-05-19T01:12:42.139Z,36.77
2019-05-19T01:15:14.288Z,38.57
2019-05-19T01:17:45.902Z,37.07
2019-05-19T01:20:18.580Z,42.70
2019-05-19T01:22:50.228Z,40.67
2019-05-19T01:25:22.073Z,33.40
2019-05-19T01:27:53.621Z,36.93
2019-05-19T01:30:25.255Z,33.53
2019-05-19T01:32:56.803Z,34.57
2019-05-19T01:35:28.339Z,39.43
2019-05-19T01:38:00.189Z,34.00
2019-05-19T01:40:31.733Z,34.37
2019-05-19T01:43:03.284Z,35.27
2019-05-19T01:45:34.918Z,36.07
2019-05-19T01:48:09.731Z,40.27
2019-05-19T01:50:41.469Z,37.27
2019-05-19T01:53:13.220Z,35.73
2019-05-19T01:55:44.972Z,37.00
2019-05-19T01:58:16.721Z,34.73
2019-05-19T02:00:48.267Z,39.90
2019-05-19T02:03:20.009Z,37.97
2019-05-19T02:05:51.749Z,41.57
2019-05-19T02:08:23.500Z,40.80
2019-05-19T02:10:55.252Z,41.97
2019-05-19T02:13:27.011Z,41.33
2019-05-19T02:15:58.565Z,38.80
2019-05-19T02:18:30.215Z,44.13
2019-05-19T02:21:03.410Z,47.17
2019-05-19T02:23:34.961Z,45.43
2019-05-19T02:26:06.525Z,43.07
2019-05-19T02:28:38.173Z,37.10
2019-05-19T02:31:09.717Z,44.77
2019-05-19T02:33:41.355Z,40.93
2019-05-19T02:36:12.904Z,40.83
2019-05-19T02:38:44.452Z,34.50
2019-05-19T02:41:18.273Z,38.40
2019-05-19T02:43:53.101Z,34.87
2019-05-19T02:46:26.551Z,38.97
2019-05-19T02:49:00.537Z,35.93
2019-05-19T02:51:35.162Z,36.53
2019-05-19T02:54:09.235Z,36.87
2019-05-19T02:56:41.055Z,42.13
2019-05-19T02:59:14.050Z,39.27
2019-05-19T03:02:02.657Z,40.13
2019-05-19T03:04:34.305Z,44.57
2019-05-19T03:07:06.155Z,46.10
2019-05-19T03:09:37.903Z,41.80
2019-05-19T03:12:09.739Z,43.63
2019-05-19T03:14:41.485Z,43.03
2019-05-19T03:17:13.224Z,41.73
2019-05-19T03:19:44.789Z,45.03
2019-05-19T03:22:16.332Z,43.03
2019-05-19T03:24:47.890Z,43.40
2019-05-19T03:27:19.454Z,44.30
2019-05-19T03:29:52.634Z,37.70
2019-05-19T03:32:34.790Z,47.50
2019-05-19T03:35:06.685Z,43.43
2019-05-19T03:37:38.358Z,44.70
2019-05-19T03:40:12.058Z,50.90
2019-05-19T03:42:43.595Z,44.53
2019-05-19T03:45:15.136Z,41.80
2019-05-19T03:47:46.850Z,49.97
2019-05-19T03:50:18.689Z,50.20
2019-05-19T03:52:50.440Z,43.33
2019-05-19T03:55:21.986Z,43.20
2019-05-19T03:57:53.523Z,41.53
2019-05-19T04:00:25.533Z,49.27
2019-05-19T04:02:57.076Z,49.90
2019-05-19T04:05:29.225Z,42.97
2019-05-19T04:08:01.014Z,38.93
2019-05-19T04:10:32.750Z,41.07
2019-05-19T04:13:04.504Z,38.23
2019-05-19T04:15:36.246Z,36.57
2019-05-19T04:18:07.984Z,37.63
2019-05-19T04:20:39.729Z,35.97
2019-05-19T04:23:11.569Z,32.63
2019-05-19T04:25:43.312Z,30.27
2019-05-19T04:28:15.047Z,33.63
2019-05-19T04:30:46.801Z,31.50
2019-05-19T04:33:18.550Z,33.60
2019-05-19T04:35:51.934Z,32.30
2019-05-19T04:38:23.582Z,31.57
2019-05-19T04:40:55.418Z,31.10
2019-05-19T04:43:27.162Z,37.57
2019-05-19T04:45:58.902Z,34.00
2019-05-19T04:48:32.703Z,33.47
2019-05-19T04:51:07.255Z,33.57
2019-05-19T04:53:41.227Z,36.70
2019-05-19T04:56:14.551Z,36.97
2019-05-19T04:58:46.293Z,33.27
2019-05-19T05:01:18.913Z,36.87
2019-05-19T05:03:50.455Z,33.37
2019-05-19T05:06:22.298Z,32.27
2019-05-19T05:08:53.975Z,35.43
2019-05-19T05:11:25.719Z,39.07
2019-05-19T05:13:57.468Z,37.27
2019-05-19T05:16:29.211Z,37.30
2019-05-19T05:19:05.147Z,35.00
2019-05-19T05:21:36.719Z,34.20
2019-05-19T05:24:10.206Z,32.63
2019-05-19T09:25:58.327Z,7.33
2019-05-19T09:28:31.212Z,7.20
2019-05-19T09:31:02.987Z,8.23
2019-05-19T09:33:36.567Z,7.77
2019-05-19T09:36:22.221Z,6.03
2019-05-19T09:38:53.937Z,6.90
2019-05-19T09:41:26.051Z,7.13
2019-05-19T09:43:58.781Z,8.40
2019-05-19T09:46:32.449Z,9.63
2019-05-19T09:49:26.149Z,11.63
2019-05-19T09:51:57.879Z,13.27
2019-05-19T09:54:44.100Z,11.67
2019-05-19T09:57:19.423Z,15.90
2019-05-19T09:59:54.865Z,17.57
2019-05-19T10:02:26.697Z,17.73
2019-05-19T10:04:58.720Z,24.57
2019-05-19T10:07:40.988Z,20.87
2019-05-19T10:10:30.495Z,21.80
2019-05-19T10:13:02.193Z,23.27
2019-05-19T10:15:36.610Z,27.67
2019-05-19T10:18:11.891Z,28.60
2019-05-19T10:20:43.766Z,31.33
2019-05-19T10:23:15.545Z,34.73
2019-05-19T10:25:50.906Z,34.97
2019-05-19T10:28:23.595Z,41.67
2019-05-19T10:30:56.332Z,45.77
2019-05-19T10:33:29.576Z,36.70
2019-05-19T10:36:07.813Z,38.50
2019-05-19T10:38:39.985Z,39.47
2019-05-19T10:41:19.007Z,37.97
2019-05-19T10:43:54.195Z,39.80
2019-05-19T10:46:25.792Z,39.73
2019-05-19T10:48:57.663Z,37.53
2019-05-19T10:51:32.366Z,33.53
2019-05-19T10:54:05.775Z,36.57
2019-05-19T10:56:39.049Z,35.40
2019-05-19T10:59:12.554Z,38.30
2019-05-19T11:01:48.681Z,39.33
2019-05-19T11:04:22.118Z,36.70
2019-05-19T11:06:53.699Z,37.47
2019-05-19T11:09:26.990Z,38.57
2019-05-19T11:12:00.539Z,36.80
2019-05-19T11:14:32.204Z,30.20
2019-05-19T11:17:05.633Z,19.13
2019-05-19T11:19:37.490Z,18.70
2019-05-19T11:22:10.825Z,18.00
2019-05-19T11:24:44.062Z,17.63
2019-05-19T11:27:15.885Z,17.33
2019-05-19T11:29:48.516Z,20.13
2019-05-19T11:32:20.267Z,21.60
2019-05-19T11:34:52.043Z,17.97
2019-05-19T11:37:23.787Z,20.10
2019-05-19T11:39:55.574Z,25.60
2019-05-19T11:42:27.350Z,22.60
2019-05-19T11:44:59.104Z,23.67
2019-05-19T11:47:30.862Z,20.57
2019-05-19T11:50:02.662Z,19.43
2019-05-19T11:52:34.320Z,16.10
2019-05-19T11:55:09.408Z,20.60
2019-05-19T11:57:41.271Z,17.57
2019-05-19T12:00:14.029Z,21.43
2019-05-19T12:02:45.683Z,19.50
2019-05-19T12:05:19.141Z,19.07
2019-05-19T12:07:50.801Z,20.13
2019-05-19T12:10:22.569Z,20.10
2019-05-19T12:12:56.127Z,19.23
2019-05-19T12:15:27.975Z,18.83
2019-05-19T12:18:00.023Z,19.47
2019-05-19T12:20:32.022Z,18.20
2019-05-19T12:23:03.805Z,21.00
2019-05-19T12:25:35.496Z,17.00
2019-05-19T12:28:07.251Z,20.43
2019-05-19T12:30:42.898Z,18.00
2019-05-19T12:33:16.019Z,18.43
2019-05-19T12:35:47.685Z,14.00
2019-05-19T12:38:19.518Z,15.47
2019-05-19T12:40:52.739Z,14.23
2019-05-19T12:43:25.461Z,19.13
2019-05-19T12:45:57.334Z,18.53
2019-05-19T12:48:28.981Z,17.03
2019-05-19T12:51:01.937Z,17.37
2019-05-19T12:53:33.790Z,14.33
2019-05-19T12:56:05.630Z,15.57
2019-05-19T12:58:37.317Z,12.60
2019-05-19T13:01:09.103Z,13.87
2019-05-19T13:03:41.137Z,12.57
2019-05-19T13:06:12.909Z,15.60
2019-05-19T13:08:45.810Z,20.57
2019-05-19T13:11:17.597Z,26.60
2019-05-19T13:13:49.401Z,18.23
2019-05-19T13:16:21.110Z,17.13
2019-05-19T13:18:54.447Z,16.97
2019-05-19T13:21:27.794Z,15.40
2019-05-19T13:23:59.463Z,15.83
2019-05-19T13:26:31.238Z,14.83
2019-05-19T13:29:03.331Z,13.43
2019-05-19T13:31:35.831Z,12.53
2019-05-19T13:34:08.328Z,12.70
2019-05-19T13:36:40.495Z,18.03
2019-05-19T13:39:12.531Z,12.53
2019-05-19T13:41:44.304Z,13.67
2019-05-19T13:44:16.011Z,14.00
2019-05-19T13:46:49.148Z,12.63
2019-05-19T13:49:21.099Z,14.37
2019-05-19T13:51:52.866Z,17.53
2019-05-19T13:54:25.781Z,12.50
2019-05-19T13:57:11.271Z,11.60
2019-05-19T13:59:30.869Z,10.97
2019-05-19T14:02:03.188Z,13.40
2019-05-19T14:04:35.218Z,11.07
2019-05-19T14:07:08.896Z,14.37
2019-05-19T14:09:40.647Z,13.97
2019-05-19T14:12:13.271Z,12.07
2019-05-19T14:14:45.096Z,12.70
2019-05-19T14:17:20.021Z,11.77
2019-05-19T14:19:53.508Z,13.13
2019-05-19T14:22:25.255Z,10.90
2019-05-19T14:24:57.310Z,14.53
2019-05-19T14:27:30.682Z,13.07
2019-05-19T14:30:02.443Z,10.83
2019-05-19T14:32:34.125Z,12.27
2019-05-19T14:35:07.691Z,10.40
2019-05-19T14:37:39.301Z,8.93
2019-05-19T14:40:14.082Z,11.47
2019-05-19T14:42:50.504Z,8.47
2019-05-19T14:45:22.155Z,13.30
2019-05-19T14:47:53.898Z,7.97
2019-05-19T14:50:25.654Z,12.20
2019-05-19T14:52:59.372Z,9.80
2019-05-19T14:55:31.014Z,10.83
2019-05-19T14:58:02.749Z,7.43
2019-05-19T15:00:34.652Z,8.83
2019-05-19T15:03:06.277Z,7.17
2019-05-19T15:05:38.035Z,10.53
2019-05-19T15:08:11.052Z,7.37
2019-05-19T15:10:43.065Z,10.50
2019-05-19T15:13:14.655Z,8.83
2019-05-19T15:15:50.171Z,7.83
2019-05-19T15:18:23.267Z,8.03
2019-05-19T15:20:55.406Z,7.80
2019-05-19T15:23:28.972Z,7.97
2019-05-19T15:26:00.537Z,11.03
2019-05-19T15:28:32.449Z,7.37
2019-05-19T15:31:08.146Z,7.43
2019-05-19T15:33:44.954Z,11.63
2019-05-19T15:36:18.311Z,7.47
2019-05-19T15:38:56.376Z,8.57
2019-05-19T15:41:32.427Z,7.80
2019-05-19T15:44:04.730Z,13.93
2019-05-19T15:46:36.593Z,4.80
2019-05-19T15:49:08.318Z,5.90
2019-05-19T15:51:40.176Z,5.67
2019-05-19T15:54:11.935Z,4.90
2019-05-19T15:56:43.874Z,6.43
2019-05-19T15:59:15.696Z,4.53
2019-05-19T16:01:47.475Z,4.93
2019-05-19T16:04:19.211Z,6.60
2019-05-19T16:06:51.145Z,7.00
2019-05-19T16:09:23.326Z,5.53
2019-05-19T16:11:55.178Z,9.03
2019-05-19T16:14:27.020Z,8.97
2019-05-19T16:16:58.668Z,6.70
2019-05-19T16:19:30.721Z,7.90
2019-05-19T16:22:02.493Z,7.17
2019-05-19T16:24:36.615Z,9.50
2019-05-19T16:27:08.481Z,21.80
2019-05-19T16:29:40.239Z,19.57
2019-05-19T16:32:13.172Z,11.20
2019-05-19T16:34:45.868Z,14.73
2019-05-19T16:37:18.851Z,14.37
2019-05-19T16:39:50.606Z,15.60
2019-05-19T16:42:23.354Z,11.63
2019-05-19T16:44:55.099Z,14.93
2019-05-19T16:47:26.868Z,20.37
2019-05-19T16:49:58.523Z,14.17
2019-05-19T16:52:30.451Z,10.63
2019-05-19T16:55:18.762Z,10.77
2019-05-19T16:57:50.832Z,14.77
2019-05-19T17:00:24.747Z,17.17
2019-05-19T17:02:56.317Z,15.07
2019-05-19T17:05:28.238Z,12.60
2019-05-19T17:07:59.968Z,13.40
2019-05-19T17:10:33.220Z,22.33
2019-05-19T17:13:04.980Z,24.63
2019-05-19T17:15:36.760Z,20.13
2019-05-19T17:18:09.988Z,18.47
2019-05-19T17:20:41.847Z,42.33
2019-05-19T17:23:13.629Z,46.60
2019-05-19T17:25:45.357Z,27.17
2019-05-19T17:28:17.152Z,18.53
2019-05-19T17:30:48.921Z,12.17
2019-05-19T17:33:20.741Z,12.03
2019-05-19T17:35:53.404Z,12.83
2019-05-19T17:38:27.166Z,13.33
2019-05-19T17:40:58.805Z,17.63
2019-05-19T17:43:30.678Z,13.40
2019-05-19T17:46:02.445Z,13.77
2019-05-19T17:48:35.533Z,13.80
2019-05-19T17:51:07.654Z,13.13
2019-05-19T17:53:39.577Z,10.03
2019-05-19T17:56:14.727Z,16.13
2019-05-19T17:58:47.560Z,12.87
2019-05-19T18:01:19.119Z,12.77
2019-05-19T18:03:51.056Z,13.33
2019-05-19T18:06:22.792Z,16.73
2019-05-19T18:08:54.481Z,17.03
2019-05-19T18:11:27.473Z,15.03
2019-05-19T18:13:59.161Z,15.63
2019-05-19T18:16:30.897Z,12.93
2019-05-19T18:19:04.305Z,13.37
2019-05-19T18:21:36.003Z,11.43
2019-05-19T18:24:07.768Z,9.57
2019-05-19T18:26:42.381Z,11.20
2019-05-19T18:29:14.043Z,12.00
2019-05-19T18:31:45.766Z,11.30
2019-05-19T18:34:17.527Z,17.83
2019-05-19T18:36:52.006Z,10.80
2019-05-19T18:39:23.605Z,7.83
2019-05-19T18:41:55.240Z,8.20
2019-05-19T18:44:27.033Z,7.20
2019-05-19T18:46:59.440Z,6.73
2019-05-19T18:49:39.133Z,10.33
2019-05-19T18:52:16.439Z,7.47
2019-05-19T18:54:52.702Z,9.13
2019-05-19T18:57:30.106Z,9.67
2019-05-19T19:02:48.338Z,10.87
2019-05-19T19:05:20.110Z,16.53
2019-05-19T19:07:53.507Z,13.57
2019-05-19T19:10:25.170Z,9.97
2019-05-19T19:12:56.937Z,11.10
2019-05-19T19:15:28.683Z,15.77
2019-05-19T19:18:04.403Z,19.33
2019-05-19T19:20:36.319Z,11.27
2019-05-19T19:23:09.285Z,18.40
2019-05-19T19:25:42.253Z,10.73
2019-05-19T19:28:14.400Z,12.20
2019-05-19T19:30:50.243Z,19.70
2019-05-19T19:33:21.918Z,13.03
2019-05-19T19:35:56.769Z,7.37
2019-05-19T19:38:32.317Z,19.43
2019-05-19T19:41:05.330Z,11.40
2019-05-19T19:43:37.152Z,8.80
2019-05-19T19:46:08.825Z,9.10
2019-05-19T19:48:40.588Z,9.23
2019-05-19T19:51:13.455Z,10.37
2019-05-19T19:53:48.769Z,6.90
2019-05-19T19:56:22.829Z,7.63
2019-05-19T19:58:59.147Z,10.80
2019-05-19T20:01:31.078Z,7.47
2019-05-19T20:04:03.322Z,6.30
2019-05-19T20:06:34.913Z,8.43
2019-05-19T20:09:07.964Z,7.33
2019-05-19T20:11:40.951Z,8.73
2019-05-19T20:14:12.630Z,6.57
2019-05-19T20:16:44.368Z,7.70
2019-05-19T20:19:22.251Z,10.40
2019-05-19T20:21:54.146Z,10.77
2019-05-19T20:24:33.844Z,8.40
2019-05-19T20:27:07.149Z,6.17
2019-05-19T20:29:38.799Z,5.93
2019-05-19T20:32:13.329Z,7.27
2019-05-19T20:34:45.082Z,6.93
2019-05-19T20:37:17.994Z,6.83
2019-05-19T20:39:52.541Z,11.57
2019-05-19T20:42:25.887Z,6.17
2019-05-19T20:45:03.106Z,8.53
2019-05-19T20:47:37.047Z,9.40
2019-05-19T20:50:10.886Z,12.70
2019-05-19T20:52:43.733Z,7.07
2019-05-19T20:55:16.369Z,7.90
2019-05-19T20:57:49.662Z,7.07
2019-05-19T21:00:23.062Z,6.37
2019-05-19T21:02:54.612Z,11.80
2019-05-19T21:05:28.523Z,5.80
2019-05-19T21:08:02.445Z,6.77
2019-05-19T21:10:38.489Z,7.47
2019-05-19T21:13:13.912Z,8.47
2019-05-19T21:15:45.474Z,8.93
2019-05-19T21:18:17.187Z,8.23
2019-05-19T21:20:49.171Z,8.90
2019-05-19T21:23:21.332Z,10.07
2019-05-19T21:25:53.078Z,7.27
2019-05-19T21:28:26.224Z,8.53
2019-05-19T21:31:06.064Z,5.37
2019-05-19T21:33:31.214Z,6.97
2019-05-19T21:36:02.953Z,5.83
2019-05-19T21:38:34.672Z,6.73
2019-05-19T21:41:08.334Z,6.57
2019-05-19T21:43:40.059Z,6.87
2019-05-19T21:46:11.815Z,9.40
2019-05-19T21:48:43.529Z,9.57
2019-05-19T21:51:17.849Z,9.87
2019-05-19T21:53:50.859Z,15.67
2019-05-19T21:56:22.584Z,12.33
2019-05-19T21:58:54.318Z,12.53
2019-05-19T22:01:26.796Z,8.37
2019-05-19T22:03:58.421Z,9.90
2019-05-19T22:06:31.824Z,8.50
2019-05-19T22:09:04.385Z,8.33
2019-05-19T22:11:36.098Z,9.20
2019-05-19T22:14:07.917Z,10.10
2019-05-19T22:16:39.668Z,12.47
2019-05-19T22:19:11.399Z,10.17
2019-05-19T22:21:43.250Z,9.10
2019-05-19T22:24:14.973Z,8.10
2019-05-19T22:26:46.704Z,11.63
2019-05-19T22:29:18.439Z,9.53
2019-05-19T22:31:50.279Z,9.17
2019-05-19T22:34:22.025Z,8.47
2019-05-19T22:36:53.939Z,9.63
2019-05-19T22:39:25.764Z,11.27
2019-05-19T22:42:00.096Z,10.10
2019-05-19T22:44:31.719Z,10.33
2019-05-19T22:47:03.575Z,8.97
2019-05-19T22:49:35.278Z,9.50
2019-05-19T22:52:07.021Z,13.00
2019-05-19T22:54:38.843Z,8.23
2019-05-19T22:57:10.586Z,9.60
2019-05-19T22:59:42.307Z,7.80
2019-05-19T23:02:14.052Z,10.77
2019-05-19T23:04:45.885Z,13.93
2019-05-19T23:07:17.666Z,11.30
2019-05-19T23:09:49.382Z,14.40
2019-05-19T23:12:21.131Z,14.87
2019-05-19T23:14:54.323Z,15.50
2019-05-19T23:17:28.085Z,12.00
2019-05-19T23:19:59.803Z,12.63
2019-05-19T23:22:31.562Z,11.87
2019-05-19T23:25:03.757Z,11.03
2019-05-19T23:27:35.710Z,11.07
2019-05-19T23:30:11.183Z,11.23
2019-05-19T23:32:42.913Z,17.23
2019-05-19T23:35:14.700Z,14.63
2019-05-19T23:37:47.635Z,10.73
2019-05-19T23:40:19.363Z,13.60
2019-05-19T23:42:52.955Z,13.77
2019-05-19T23:45:24.678Z,17.40
2019-05-19T23:47:56.530Z,15.20
2019-05-19T23:50:28.257Z,18.57
2019-05-19T23:53:00.005Z,18.00
2019-05-19T23:55:32.605Z,12.77
2019-05-19T23:58:04.448Z,12.97
